Time;durP1;ratioP1;P1;durP2;ratioP2;P2;SDS_P1;SDS_P2;PMS_P1;PMS_P2;Temp;Humidity;BMP_temperature;BMP_pressure;BME280_temperature;BME280_humidity;BME280_pressure;Samples;Min_cycle;Max_cycle;Signal;HPM_P1;HPM_P2
2023/06/05 00:03:06;;;;;;;0.50;0.50;;;22.40;98.30;;;;;;1911794;73;27052;-59
2023/06/05 00:05:55;;;;;;;0.43;0.43;;;22.40;98.30;;;;;;1880184;75;26171;-59
2023/06/05 00:08:44;;;;;;;0.40;0.40;;;22.40;98.30;;;;;;1877035;76;25192;-60
2023/06/05 00:14:10;;;;;;;0.50;0.50;;;22.40;98.30;;;;;;1922613;74;27121;-61
2023/06/05 00:17:00;;;;;;;0.53;0.53;;;22.40;98.30;;;;;;1877989;76;25257;-61
2023/06/05 00:19:49;;;;;;;0.60;0.60;;;22.40;98.40;;;;;;1874775;75;25249;-61
2023/06/05 00:25:16;;;;;;;0.93;0.50;;;22.40;98.30;;;;;;1946389;72;27135;-60
2023/06/05 00:28:04;;;;;;;0.50;0.50;;;22.40;98.30;;;;;;1896003;74;25249;-60
2023/06/05 00:30:53;;;;;;;0.40;0.40;;;22.40;98.30;;;;;;1889759;75;25178;-59
2023/06/05 00:33:42;;;;;;;0.50;0.50;;;22.40;98.40;;;;;;1893560;75;25190;-60
2023/06/05 00:36:32;;;;;;;0.40;0.40;;;22.40;98.40;;;;;;1913823;75;25180;-61
2023/06/05 00:39:21;;;;;;;0.40;0.40;;;22.40;98.40;;;;;;1879974;75;25301;-60
2023/06/05 00:44:50;;;;;;;0.40;0.40;;;22.40;98.40;;;;;;1932271;72;27978;-60
2023/06/05 00:50:17;;;;;;;0.50;0.50;;;22.30;98.30;;;;;;1921317;73;27181;-60
2023/06/05 00:53:07;;;;;;;0.53;0.53;;;22.30;98.40;;;;;;1908033;75;25368;-59
2023/06/05 00:55:57;;;;;;;0.50;0.50;;;22.30;98.60;;;;;;1875513;76;25282;-60
2023/06/05 00:58:46;;;;;;;0.50;0.50;;;22.30;98.40;;;;;;1906513;75;25260;-59
2023/06/05 01:01:36;;;;;;;5.33;0.43;;;22.30;98.30;;;;;;1902908;75;25931;-60
2023/06/05 01:04:26;;;;;;;1.07;0.53;;;22.30;98.40;;;;;;1908006;74;25246;-61
2023/06/05 01:07:17;;;;;;;0.60;0.60;;;22.30;98.40;;;;;;1901491;75;25274;-61
2023/06/05 01:10:09;;;;;;;0.50;0.50;;;22.30;98.40;;;;;;1913956;75;25661;-59
2023/06/05 01:13:04;;;;;;;0.60;0.60;;;22.30;98.40;;;;;;1901981;74;25227;-60
2023/06/05 01:15:54;;;;;;;0.50;0.50;;;22.30;98.30;;;;;;1912847;75;25273;-60
2023/06/05 01:18:45;;;;;;;0.50;0.50;;;22.30;98.40;;;;;;1905291;75;25287;-60
2023/06/05 01:21:35;;;;;;;0.50;0.50;;;22.30;98.30;;;;;;1906933;75;25355;-61
2023/06/05 01:24:25;;;;;;;0.50;0.50;;;22.30;98.30;;;;;;1903942;75;25707;-60
2023/06/05 01:27:16;;;;;;;0.50;0.50;;;22.30;98.30;;;;;;1915599;75;25675;-60
2023/06/05 01:30:09;;;;;;;0.50;0.50;;;22.30;98.30;;;;;;1899002;75;25750;-60
2023/06/05 01:33:02;;;;;;;0.50;0.50;;;22.30;98.30;;;;;;1911863;75;25191;-59
2023/06/05 01:35:53;;;;;;;0.50;0.50;;;22.30;98.30;;;;;;1912506;75;25219;-60
2023/06/05 01:41:20;;;;;;;1.30;0.40;;;22.30;98.30;;;;;;1928766;72;27129;-60
2023/06/05 01:44:09;;;;;;;0.50;0.50;;;22.30;98.30;;;;;;1908481;75;25310;-60
2023/06/05 01:46:59;;;;;;;0.63;0.50;;;22.20;98.30;;;;;;1911219;75;25691;-59
2023/06/05 01:49:48;;;;;;;0.30;0.30;;;22.20;98.30;;;;;;1893992;73;25234;-61
2023/06/05 01:52:39;;;;;;;0.40;0.40;;;22.20;98.30;;;;;;1906674;73;25739;-58
2023/06/05 01:55:29;;;;;;;0.50;0.50;;;22.20;98.40;;;;;;1897745;73;25183;-61
2023/06/05 01:58:18;;;;;;;0.40;0.40;;;22.20;98.30;;;;;;1906587;73;25324;-59
2023/06/05 02:01:07;;;;;;;1.37;0.70;;;22.20;98.30;;;;;;1894325;73;25187;-61
2023/06/05 02:03:57;;;;;;;0.40;0.40;;;22.20;98.30;;;;;;1907360;75;25181;-60
2023/06/05 02:09:23;;;;;;;0.50;0.50;;;22.20;98.50;;;;;;1918676;73;27118;-60
2023/06/05 02:12:14;;;;;;;0.50;0.50;;;22.20;98.30;;;;;;1877636;76;25940;-59
2023/06/05 02:15:03;;;;;;;0.40;0.40;;;22.20;98.40;;;;;;1878550;76;25191;-59
2023/06/05 02:20:30;;;;;;;0.40;0.40;;;22.20;98.30;;;;;;1949583;72;26983;-61
2023/06/05 02:23:19;;;;;;;0.60;0.60;;;22.20;98.30;;;;;;1922211;73;25250;-59
2023/06/05 02:26:08;;;;;;;2.53;0.50;;;22.20;98.40;;;;;;1916096;73;25248;-59
2023/06/05 02:28:57;;;;;;;0.63;0.60;;;22.20;98.40;;;;;;1917103;73;25230;-60
2023/06/05 02:31:47;;;;;;;0.50;0.50;;;22.20;98.40;;;;;;1918880;73;25327;-62
2023/06/05 02:34:36;;;;;;;0.50;0.50;;;22.20;98.40;;;;;;1916508;73;25248;-61
2023/06/05 02:37:24;;;;;;;0.57;0.57;;;22.20;98.40;;;;;;1925105;73;25244;-61
2023/06/05 02:40:15;;;;;;;0.60;0.60;;;22.20;98.40;;;;;;1918683;73;25717;-60
2023/06/05 02:43:05;;;;;;;0.43;0.43;;;22.20;98.40;;;;;;1906551;73;25694;-60
2023/06/05 02:48:31;;;;;;;0.50;0.50;;;22.10;98.30;;;;;;1917311;72;27029;-60
2023/06/05 02:51:20;;;;;;;0.50;0.50;;;22.10;98.30;;;;;;1911714;74;25309;-61
2023/06/05 02:54:09;;;;;;;0.60;0.60;;;22.10;98.30;;;;;;1901731;75;25738;-61
2023/06/05 02:59:39;;;;;;;2.33;0.50;;;22.10;98.20;;;;;;1915110;73;27064;-60
2023/06/05 03:02:27;;;;;;;0.60;0.60;;;22.10;98.60;;;;;;1878095;74;25322;-60
2023/06/05 03:05:18;;;;;;;0.60;0.60;;;22.10;98.30;;;;;;1879089;76;25290;-60
2023/06/05 03:08:08;;;;;;;1.00;0.63;;;22.10;98.30;;;;;;1881787;76;25697;-62
2023/06/05 03:10:57;;;;;;;0.67;0.53;;;22.20;98.30;;;;;;1882847;76;25296;-60
2023/06/05 03:13:46;;;;;;;5.30;0.60;;;22.20;98.20;;;;;;1880272;76;25362;-60
2023/06/05 03:16:41;;;;;;;0.50;0.50;;;22.20;98.30;;;;;;1880809;76;25853;-61
2023/06/05 03:19:26;;;;;;;0.53;0.53;;;22.20;98.30;;;;;;1873668;75;25261;-60
2023/06/05 03:22:16;;;;;;;0.43;0.43;;;22.20;98.40;;;;;;1873449;76;25777;-60
2023/06/05 03:25:06;;;;;;;0.60;0.60;;;22.20;98.30;;;;;;1879640;76;25222;-60
2023/06/05 03:27:55;;;;;;;1.70;0.50;;;22.20;98.30;;;;;;1869809;76;25729;-58
2023/06/05 03:30:44;;;;;;;3.37;0.50;;;22.20;98.40;;;;;;1880618;76;25186;-60
2023/06/05 03:33:33;;;;;;;0.60;0.60;;;22.20;98.30;;;;;;1879336;76;25253;-59
2023/06/05 03:36:22;;;;;;;2.83;0.60;;;22.20;98.30;;;;;;1881800;76;25249;-59
2023/06/05 03:42:00;;;;;;;0.60;0.60;;;22.20;98.20;;;;;;1939746;72;26960;-60
2023/06/05 03:47:28;;;;;;;0.83;0.70;;;22.20;98.20;;;;;;1940091;74;27022;-59
2023/06/05 03:50:17;;;;;;;0.50;0.50;;;22.20;98.20;;;;;;1912231;74;25327;-60
2023/06/05 03:53:07;;;;;;;0.70;0.50;;;22.20;98.20;;;;;;1911406;74;25845;-60
2023/06/05 03:55:56;;;;;;;0.60;0.60;;;22.20;98.20;;;;;;1909893;74;25339;-60
2023/06/05 03:58:48;;;;;;;0.60;0.60;;;22.20;98.20;;;;;;1909612;74;25257;-61
2023/06/05 04:01:37;;;;;;;0.60;0.60;;;22.20;98.20;;;;;;1898521;75;26804;-60
2023/06/05 04:04:26;;;;;;;2.67;0.50;;;22.20;98.20;;;;;;1906232;74;25346;-60
2023/06/05 04:07:14;;;;;;;1.17;0.60;;;22.20;98.20;;;;;;1894903;75;25689;-59
2023/06/05 04:10:04;;;;;;;0.90;0.70;;;22.20;98.20;;;;;;1898082;75;25182;-59
2023/06/05 04:12:53;;;;;;;0.60;0.60;;;22.20;98.10;;;;;;1910645;75;25187;-59
2023/06/05 04:15:44;;;;;;;1.17;0.60;;;22.20;98.00;;;;;;1894279;75;25786;-60
2023/06/05 04:18:31;;;;;;;0.87;0.60;;;22.30;98.10;;;;;;1904015;74;25196;-60
2023/06/05 04:21:20;;;;;;;1.50;0.50;;;22.30;98.10;;;;;;1906839;75;25732;-60
2023/06/05 04:24:11;;;;;;;0.40;0.40;;;22.30;98.10;;;;;;1911895;74;25719;-60
2023/06/05 04:27:00;;;;;;;0.57;0.57;;;22.30;98.50;;;;;;1905828;75;25256;-60
2023/06/05 04:29:49;;;;;;;0.47;0.47;;;22.30;98.10;;;;;;1898635;75;26000;-61
2023/06/05 04:32:39;;;;;;;0.70;0.70;;;22.30;98.20;;;;;;1901871;75;25307;-60
2023/06/05 04:35:31;;;;;;;3.87;0.60;;;22.30;98.10;;;;;;1909838;75;25731;-61
2023/06/05 04:38:21;;;;;;;0.50;0.50;;;22.30;98.10;;;;;;1903373;75;25739;-61
2023/06/05 04:41:10;;;;;;;0.60;0.60;;;22.30;98.10;;;;;;1901248;74;25257;-61
2023/06/05 04:44:00;;;;;;;0.60;0.60;;;22.30;98.10;;;;;;1889838;74;25828;-60
2023/06/05 04:46:49;;;;;;;0.50;0.50;;;22.30;98.20;;;;;;1907913;74;26340;-61
2023/06/05 04:49:38;;;;;;;0.60;0.60;;;22.30;98.10;;;;;;1889328;75;25348;-61
2023/06/05 04:52:29;;;;;;;0.63;0.63;;;22.30;98.10;;;;;;1893865;75;25234;-60
2023/06/05 04:55:18;;;;;;;0.87;0.60;;;22.30;98.10;;;;;;1888389;75;25687;-61
2023/06/05 04:58:07;;;;;;;0.40;0.40;;;22.40;98.20;;;;;;1888714;75;25687;-60
2023/06/05 05:01:06;;;;;;;0.67;0.67;;;22.40;98.10;;;;;;1888771;75;25246;-58
2023/06/05 05:03:48;;;;;;;0.40;0.40;;;22.40;98.10;;;;;;1895595;75;25187;-59
2023/06/05 05:09:16;;;;;;;2.00;0.47;;;22.40;98.20;;;;;;1927077;72;27170;-60
2023/06/05 05:14:44;;;;;;;3.07;0.93;;;22.40;98.90;;;;;;1966724;72;27149;-60
2023/06/05 05:17:34;;;;;;;7.03;1.30;;;22.50;99.30;;;;;;1921833;73;25177;-59
2023/06/05 05:20:22;;;;;;;3.10;0.93;;;22.50;99.90;;;;;;1922732;73;25244;-59
2023/06/05 05:23:11;;;;;;;2.93;1.43;;;22.50;99.90;;;;;;1931483;73;25249;-62
2023/06/05 05:26:00;;;;;;;2.60;0.90;;;22.50;99.90;;;;;;1923282;73;25249;-59
2023/06/05 05:28:48;;;;;;;2.80;0.90;;;22.40;99.20;;;;;;1924846;73;25852;-59
2023/06/05 05:31:37;;;;;;;5.67;1.10;;;22.50;99.40;;;;;;1924964;73;25228;-58
2023/06/05 05:34:26;;;;;;;1.87;1.00;;;22.40;99.90;;;;;;1932473;73;25780;-61
2023/06/05 05:39:54;;;;;;;2.50;1.20;;;22.50;99.90;;;;;;1916008;74;27173;-61
2023/06/05 05:42:43;;;;;;;3.73;1.17;;;22.50;99.90;;;;;;1884761;75;25788;-60
2023/06/05 05:45:33;;;;;;;4.47;1.07;;;22.50;99.90;;;;;;1898501;75;25236;-60
2023/06/05 07:27:43;;;;;;;1.70;1.60;;;18.50;99.90;;;;;;1891274;75;25151;-89
2023/06/05 07:30:53;;;;;;;2.33;1.87;;;18.20;99.90;;;;;;1853273;76;25674;-89
2023/06/05 08:08:12;;;;;;;2.30;1.80;;;19.40;99.90;;;;;;1928190;73;25227;-89
2023/06/05 08:11:14;;;;;;;3.00;1.67;;;19.50;99.90;;;;;;1910940;73;25228;-89
2023/06/05 08:14:45;;;;;;;4.00;1.83;;;19.50;99.90;;;;;;1928059;73;25303;-90
2023/06/05 08:27:02;;;;;;;2.57;1.70;;;19.10;99.90;;;;;;2026879;69;26167;-89
2023/06/05 08:38:04;;;;;;;3.70;1.90;;;19.20;99.90;;;;;;2066229;67;25192;-89
2023/06/05 09:35:38;;;;;;;3.37;1.87;;;20.50;99.90;;;;;;1874328;75;25821;-91
2023/06/05 09:39:15;;;;;;;5.63;1.87;;;20.90;99.90;;;;;;1871252;76;25181;-90
2023/06/05 13:08:38;;;;;;;9.30;3.83;;;20.60;99.90;;;;;;1940497;73;25329;-89
2023/06/05 13:12:20;;;;;;;12.47;4.20;;;20.60;99.90;;;;;;1865845;76;25297;-89
2023/06/05 13:39:01;;;;;;;7.50;4.00;;;20.60;99.90;;;;;;1991005;71;30960;-89
2023/06/05 14:50:42;;;;;;;10.30;6.77;;;21.30;99.90;;;;;;1932891;72;27535;-89
2023/06/05 14:53:32;;;;;;;7.33;5.03;;;21.40;99.90;;;;;;1896779;74;25318;-91
2023/06/05 14:56:22;;;;;;;8.57;3.50;;;21.40;99.90;;;;;;1894165;74;25297;-90
2023/06/05 14:59:12;;;;;;;5.73;2.83;;;21.10;99.90;;;;;;1902681;75;25329;-90
2023/06/05 15:02:00;;;;;;;4.40;3.17;;;21.10;99.90;;;;;;1898695;75;25293;-90
2023/06/05 15:04:48;;;;;;;3.77;2.80;;;21.00;99.90;;;;;;1898120;74;25656;-90
2023/06/05 15:21:50;;;;;;;6.20;2.57;;;21.10;99.90;;;;;;1933221;72;26315;-89
2023/06/05 15:24:39;;;;;;;3.40;2.40;;;21.00;99.90;;;;;;1892477;73;25259;-89
2023/06/05 15:27:28;;;;;;;6.43;2.70;;;20.90;99.90;;;;;;1895552;73;25233;-89
2023/06/05 15:30:17;;;;;;;3.57;2.50;;;20.80;99.90;;;;;;1907672;73;25245;-90
2023/06/05 15:33:06;;;;;;;3.20;2.47;;;20.80;99.90;;;;;;1902525;75;25286;-89
2023/06/05 15:35:55;;;;;;;9.47;2.10;;;20.90;99.90;;;;;;1896129;75;25228;-90
2023/06/05 15:38:43;;;;;;;3.47;2.30;;;20.90;99.90;;;;;;1894033;73;25262;-89
2023/06/05 15:41:32;;;;;;;4.73;2.57;;;20.50;99.90;;;;;;1889394;75;25251;-89
2023/06/05 15:44:21;;;;;;;4.10;2.80;;;20.50;99.90;;;;;;1874670;75;25266;-89
2023/06/05 15:47:09;;;;;;;3.03;2.23;;;20.60;99.90;;;;;;1839600;77;25697;-89
2023/06/05 15:52:44;;;;;;;3.33;2.50;;;20.30;99.90;;;;;;1908983;74;27195;-90
2023/06/05 15:55:37;;;;;;;2.93;2.30;;;20.40;99.90;;;;;;1875866;76;25760;-89
2023/06/05 15:59:03;;;;;;;3.07;2.10;;;20.50;99.90;;;;;;1856710;76;25356;-88
2023/06/05 16:02:51;;;;;;;2.90;2.20;;;20.50;99.90;;;;;;1869230;76;25315;-88
2023/06/05 16:09:06;;;;;;;3.57;2.17;;;20.60;99.90;;;;;;1813943;75;25347;-89
2023/06/05 16:11:54;;;;;;;4.47;2.10;;;20.70;99.90;;;;;;1875100;74;25146;-89
2023/06/05 19:38:34;;;;;;;4.17;1.93;;;17.50;99.90;;;;;;1793982;76;25303;-90
2023/06/05 22:50:11;;;;;;;7.33;3.07;;;13.50;99.90;;;;;;2015753;69;27290;-88
2023/06/05 22:53:03;;;;;;;9.10;2.80;;;13.20;99.90;;;;;;1999694;71;25758;-89
2023/06/05 22:59:06;;;;;;;4.87;2.53;;;12.90;99.90;;;;;;1982436;71;25228;-89
2023/06/05 23:02:00;;;;;;;5.10;2.40;;;12.90;99.90;;;;;;1979060;71;25225;-89
2023/06/05 23:04:50;;;;;;;5.70;2.73;;;12.90;99.90;;;;;;1975204;71;25696;-89
2023/06/05 23:07:48;;;;;;;4.00;2.70;;;12.80;99.90;;;;;;2002058;71;25203;-89
2023/06/05 23:10:48;;;;;;;6.67;3.20;;;12.80;99.90;;;;;;1991047;71;25158;-90
2023/06/05 23:13:44;;;;;;;4.83;2.50;;;12.80;99.90;;;;;;1978209;71;25206;-89
2023/06/05 23:16:39;;;;;;;7.43;2.70;;;12.80;99.90;;;;;;2000348;71;25129;-91
2023/06/05 23:19:35;;;;;;;8.17;2.70;;;12.80;99.90;;;;;;1979983;71;25218;-89
2023/06/05 23:22:24;;;;;;;8.70;3.00;;;12.60;99.90;;;;;;1991472;71;26221;-89
2023/06/05 23:25:19;;;;;;;5.00;2.53;;;12.60;99.90;;;;;;1983125;71;25663;-89
2023/06/05 23:28:09;;;;;;;7.57;3.03;;;12.60;99.90;;;;;;1966500;71;25506;-89
2023/06/05 23:31:09;;;;;;;6.47;2.80;;;12.60;99.90;;;;;;1999447;71;25605;-89
2023/06/05 23:33:59;;;;;;;7.27;2.80;;;;;;;;;;1984231;71;25188;-89
2023/06/05 23:57:00;;;;;;;9.63;3.40;;;12.70;99.90;;;;;;1949471;72;26856;-90
